Terminal Aerodrome Forecast
Issued by NWS

Home | Current Version | Previous Version | Text Only | Print | Product List | Glossary On
Versions: 1 2 3 4 5 6 7 8 9 10 11 12
615
FTUS46 KPDT 291730
TAFRDM
TAF
KRDM 291730Z 2918/3018 17004KT P6SM SKC
     FM292000 32011KT P6SM FEW150 BKN250
     FM300300 30005KT P6SM BKN080 BKN200
     FM300900 19004KT P6SM SCT070 BKN200
     FM301200 20008KT P6SM FEW070 FEW200=

USA.gov is the U.S. government's official web portal to all federal, state and local government web resources and services.